Time;durP1;ratioP1;P1;durP2;ratioP2;P2;SDS_P1;SDS_P2;PMS_P1;PMS_P2;Temp;Humidity;BMP_temperature;BMP_pressure;BME280_temperature;BME280_humidity;BME280_pressure;Samples;Min_cycle;Max_cycle;Signal;HPM_P1;HPM_P2
2022/03/22 00:02:03;;;;;;;15.97;11.67;;;;;;;7.09;34.42;100945.59;5071936;28;20188;-58
2022/03/22 00:04:32;;;;;;;16.53;12.53;;;;;;;7.08;34.85;100945.53;5072102;28;20247;-57
2022/03/22 00:06:59;;;;;;;16.87;12.90;;;;;;;7.03;34.75;100946.97;5072351;28;20199;-58
2022/03/22 00:09:25;;;;;;;16.83;11.60;;;;;;;6.98;35.28;100938.16;5071877;28;20197;-58
2022/03/22 00:11:52;;;;;;;16.37;11.77;;;;;;;7.01;35.04;100948.56;5071764;28;20194;-58
2022/03/22 00:14:20;;;;;;;15.10;11.27;;;;;;;7.02;34.52;100945.22;5071747;28;20215;-59
2022/03/22 00:16:47;;;;;;;13.83;11.23;;;;;;;7.01;34.72;100941.78;5071703;28;20289;-59
2022/03/22 00:19:13;;;;;;;18.37;11.80;;;;;;;7.00;34.92;100936.59;5072130;28;20191;-59
2022/03/22 00:21:42;;;;;;;13.13;11.23;;;;;;;7.02;35.14;100930.75;5071628;28;20202;-59
2022/03/22 00:24:09;;;;;;;19.30;11.63;;;;;;;7.08;34.92;100925.09;5071670;28;20198;-59
2022/03/22 00:26:35;;;;;;;15.13;11.30;;;;;;;7.10;34.46;100924.38;5071823;28;20199;-59
2022/03/22 00:29:03;;;;;;;15.20;10.73;;;;;;;7.10;34.34;100921.81;5071545;28;20196;-59
2022/03/22 00:31:30;;;;;;;13.87;11.13;;;;;;;7.12;34.59;100921.88;5071531;28;20198;-59
2022/03/22 00:33:57;;;;;;;17.73;12.50;;;;;;;7.11;34.85;100921.00;5071589;28;20305;-58
2022/03/22 00:36:24;;;;;;;14.80;11.17;;;;;;;7.14;34.42;100916.06;5071517;28;20569;-57
2022/03/22 00:38:53;;;;;;;16.63;11.50;;;;;;;7.17;34.56;100915.34;5071386;28;20256;-58
2022/03/22 00:41:20;;;;;;;14.10;10.73;;;;;;;7.13;34.05;100911.75;5071638;28;20286;-59
2022/03/22 00:43:47;;;;;;;14.37;10.90;;;;;;;7.13;33.61;100914.31;5071469;28;20191;-58
2022/03/22 00:46:14;;;;;;;16.03;10.63;;;;;;;7.10;34.63;100910.72;5071357;28;20191;-58
2022/03/22 00:48:42;;;;;;;14.73;10.97;;;;;;;7.15;34.34;100906.72;5071496;28;20201;-58
2022/03/22 00:51:09;;;;;;;13.90;10.60;;;;;;;7.18;33.87;100906.00;5071158;28;20193;-58
2022/03/22 00:53:36;;;;;;;14.40;10.13;;;;;;;7.19;34.02;100897.53;5071148;28;20215;-58
2022/03/22 00:56:05;;;;;;;14.10;10.33;;;;;;;7.21;33.93;100893.38;5071109;28;20199;-58
2022/03/22 00:58:32;;;;;;;14.90;10.63;;;;;;;7.19;34.50;100902.66;5070470;28;20206;-57
2022/03/22 01:00:59;;;;;;;17.52;12.13;;;;;;;7.20;33.79;100897.59;5069735;28;21015;-58
2022/03/22 01:03:27;;;;;;;15.33;10.67;;;;;;;7.27;33.84;100892.03;5070999;28;20201;-58
2022/03/22 01:05:54;;;;;;;15.33;10.97;;;;;;;7.31;33.83;100905.81;5057174;28;20215;-58
2022/03/22 01:08:20;;;;;;;14.63;11.10;;;;;;;7.36;33.24;100895.03;5050798;28;20675;-57
2022/03/22 01:10:52;;;;;;;13.23;10.50;;;;;;;7.28;33.89;100895.47;5050556;28;20202;-57
2022/03/22 01:13:21;;;;;;;12.60;9.37;;;;;;;7.31;33.19;100888.81;5050940;28;20251;-58
2022/03/22 01:15:49;;;;;;;15.40;10.33;;;;;;;7.36;33.59;100869.47;5051068;28;20198;-58
2022/03/22 01:18:16;;;;;;;14.30;10.30;;;;;;;7.40;33.59;100870.50;5050902;28;20221;-59
2022/03/22 01:20:46;;;;;;;12.77;10.43;;;;;;;7.41;33.63;100875.72;5050827;28;20294;-59
2022/03/22 01:23:14;;;;;;;13.50;9.67;;;;;;;7.44;33.55;100870.75;5050592;28;20195;-59
2022/03/22 01:25:43;;;;;;;16.37;11.33;;;;;;;7.45;33.39;100876.72;5050455;28;20190;-58
2022/03/22 01:28:12;;;;;;;12.60;9.70;;;;;;;7.46;33.54;100866.59;5055851;28;20209;-59
2022/03/22 01:30:41;;;;;;;12.87;10.13;;;;;;;7.47;33.02;100864.94;5070561;28;20715;-58
2022/03/22 01:33:11;;;;;;;15.82;12.00;;;;;;;7.46;33.31;100864.03;5069757;28;20899;-56
2022/03/22 01:35:39;;;;;;;13.33;10.53;;;;;;;7.61;33.12;100864.78;5070368;28;20711;-57
2022/03/22 01:38:06;;;;;;;13.50;10.63;;;;;;;7.61;32.95;100848.56;5070557;28;20209;-59
2022/03/22 01:40:35;;;;;;;15.87;10.37;;;;;;;7.57;33.38;100850.09;5070728;28;20269;-58
2022/03/22 01:43:02;;;;;;;15.18;11.40;;;;;;;7.65;32.69;100853.94;5069464;28;20940;-59
2022/03/22 01:45:30;;;;;;;12.67;10.20;;;;;;;7.68;32.71;100846.41;5070461;28;20661;-59
2022/03/22 01:48:01;;;;;;;15.63;10.83;;;;;;;7.68;32.83;100846.41;5070183;28;20205;-58
2022/03/22 01:50:29;;;;;;;13.00;10.40;;;;;;;7.69;32.59;100850.69;5059696;28;20285;-59
2022/03/22 01:52:58;;;;;;;15.40;10.07;;;;;;;7.70;32.36;100855.03;5051846;28;20199;-58
2022/03/22 01:55:25;;;;;;;13.30;10.10;;;;;;;7.68;32.59;100853.19;5051833;28;20230;-59
2022/03/22 01:57:54;;;;;;;13.70;10.63;;;;;;;7.66;32.63;100853.09;5070262;28;20667;-58
2022/03/22 02:00:22;;;;;;;12.27;10.33;;;;;;;7.69;32.49;100840.47;5069918;28;20237;-59
2022/03/22 02:05:54;;;;;;;23.60;11.07;;;;;;;7.73;33.06;100832.16;5062411;28;20194;-59
2022/03/22 02:08:23;;;;;;;15.43;10.93;;;;;;;7.73;32.31;100833.81;5070077;28;20210;-59
2022/03/22 02:10:50;;;;;;;13.83;11.30;;;;;;;7.76;32.36;100833.09;5070186;28;20280;-59
2022/03/22 02:13:18;;;;;;;13.77;11.17;;;;;;;7.79;32.58;100833.25;5070109;28;20282;-59
2022/03/22 02:15:49;;;;;;;13.10;10.07;;;;;;;7.80;32.39;100827.34;5068757;28;20213;-59
2022/03/22 02:18:16;;;;;;;13.20;10.43;;;;;;;7.82;32.84;100838.50;5050133;28;21005;-59
2022/03/22 02:20:46;;;;;;;19.50;11.93;;;;;;;7.86;32.65;100831.06;5050463;28;20205;-57
2022/03/22 02:23:19;;;;;;;17.58;12.55;;;;;;;7.86;32.88;100817.38;5049426;28;20443;-59
2022/03/22 02:25:49;;;;;;;14.50;11.80;;;;;;;7.90;32.54;100816.72;5054095;28;20195;-59
2022/03/22 02:28:16;;;;;;;18.70;11.77;;;;;;;7.90;32.33;100821.84;5053844;28;20287;-57
2022/03/22 02:30:44;;;;;;;19.60;12.27;;;;;;;7.87;33.02;100820.03;5057624;28;20205;-57
2022/03/22 02:33:11;;;;;;;16.07;11.57;;;;;;;7.90;33.01;100829.53;5073724;28;20211;-58
2022/03/22 02:35:39;;;;;;;13.97;10.93;;;;;;;7.67;32.63;100798.59;5056571;28;20696;-58
2022/03/22 02:38:07;;;;;;;14.23;11.23;;;;;;;7.88;32.84;100831.16;5053840;28;20199;-57
2022/03/22 02:40:33;;;;;;;17.70;11.87;;;;;;;7.85;33.06;100824.19;5053743;28;20567;-58
2022/03/22 02:43:02;;;;;;;17.47;11.83;;;;;;;7.84;33.21;100825.00;5053902;28;20195;-59
2022/03/22 02:45:29;;;;;;;14.83;11.60;;;;;;;7.76;33.39;100803.28;5053787;28;20186;-58
2022/03/22 02:47:56;;;;;;;15.93;12.47;;;;;;;7.80;32.95;100799.19;5069015;28;20199;-58
2022/03/22 02:50:23;;;;;;;18.93;12.60;;;;;;;7.88;33.03;100814.13;5070129;28;20204;-58
2022/03/22 02:52:51;;;;;;;17.10;12.20;;;;;;;7.84;33.15;100812.19;5069232;28;20657;-58
2022/03/22 02:55:18;;;;;;;19.33;12.13;;;;;;;7.87;33.42;100806.34;5071717;28;20214;-58
2022/03/22 02:57:45;;;;;;;20.47;12.70;;;;;;;7.92;33.23;100810.88;5073483;28;20669;-58
2022/03/22 03:00:14;;;;;;;14.97;11.00;;;;;;;7.91;32.74;100818.50;5065139;28;20319;-58
2022/03/22 03:02:43;;;;;;;18.83;11.70;;;;;;;7.92;32.89;100803.22;5069543;28;20231;-58
2022/03/22 03:05:10;;;;;;;18.90;14.43;;;;;;;7.99;33.04;100804.38;5052467;28;20435;-58
2022/03/22 03:07:37;;;;;;;17.10;12.23;;;;;;;8.07;32.73;100803.06;5064044;28;21034;-58
2022/03/22 03:10:05;;;;;;;15.47;12.07;;;;;;;8.05;32.89;100812.31;5073690;28;20201;-58
2022/03/22 03:12:33;;;;;;;17.70;11.63;;;;;;;7.86;32.89;100792.66;5073189;28;20289;-58
2022/03/22 03:14:59;;;;;;;18.03;12.30;;;;;;;7.59;33.01;100732.53;5073129;28;20230;-58
2022/03/22 03:17:28;;;;;;;18.90;12.53;;;;;;;7.99;32.93;100809.50;5073201;28;20283;-58
2022/03/22 03:19:55;;;;;;;20.37;12.50;;;;;;;8.01;33.39;100798.53;5073045;28;20197;-57
2022/03/22 03:22:22;;;;;;;17.93;13.07;;;;;;;7.96;33.22;100797.44;5072854;28;20285;-58
2022/03/22 03:24:48;;;;;;;18.57;12.60;;;;;;;7.97;33.63;100806.84;5072743;28;20192;-58
2022/03/22 03:27:15;;;;;;;16.87;12.13;;;;;;;7.87;33.49;100806.34;5073071;28;20199;-58
2022/03/22 03:29:42;;;;;;;15.70;11.67;;;;;;;7.88;32.98;100809.00;5072848;28;20191;-57
2022/03/22 03:32:10;;;;;;;19.03;13.47;;;;;;;7.89;33.29;100800.50;5072772;28;20193;-58
2022/03/22 03:34:38;;;;;;;20.63;12.43;;;;;;;7.88;33.55;100809.00;5068506;28;20240;-58
2022/03/22 03:37:06;;;;;;;17.57;11.80;;;;;;;7.83;33.13;100795.06;5052910;28;20200;-58
2022/03/22 03:39:33;;;;;;;21.43;12.90;;;;;;;7.91;33.22;100798.03;5052458;28;20727;-58
2022/03/22 03:42:01;;;;;;;18.47;12.50;;;;;;;7.90;33.13;100789.47;5052778;28;20202;-58
2022/03/22 03:47:16;;;;;;;18.27;12.03;;;;;;;7.91;33.48;100782.66;5052509;28;20262;-58
2022/03/22 03:49:46;;;;;;;21.07;13.10;;;;;;;7.88;33.60;100785.09;5052390;28;20579;-58
2022/03/22 03:52:14;;;;;;;20.10;13.20;;;;;;;7.86;33.66;100774.75;5052163;28;20210;-58
2022/03/22 03:54:42;;;;;;;18.53;13.27;;;;;;;7.77;34.00;100787.13;5069705;28;20222;-58
2022/03/22 03:57:10;;;;;;;20.47;13.77;;;;;;;7.76;33.95;100766.56;5077642;28;20203;-58
2022/03/22 03:59:38;;;;;;;21.73;13.07;;;;;;;7.76;33.37;100775.13;5072111;28;20322;-58
2022/03/22 04:02:07;;;;;;;18.13;12.73;;;;;;;7.77;34.31;100799.03;5071937;28;20206;-58
2022/03/22 04:04:35;;;;;;;17.53;13.07;;;;;;;7.77;33.60;100793.94;5072239;28;20225;-58
2022/03/22 04:07:04;;;;;;;18.07;12.97;;;;;;;7.85;34.19;100779.81;5072115;28;20743;-58
2022/03/22 04:09:31;;;;;;;17.67;13.27;;;;;;;7.87;33.85;100779.09;5071974;28;20281;-58
2022/03/22 04:11:58;;;;;;;19.67;13.13;;;;;;;7.84;34.13;100786.63;5072044;28;20278;-58
2022/03/22 04:14:25;;;;;;;18.37;12.93;;;;;;;7.87;33.48;100775.63;5072273;28;20206;-58
2022/03/22 04:16:52;;;;;;;19.17;13.13;;;;;;;7.89;33.89;100789.38;5071823;28;20203;-58
2022/03/22 04:19:19;;;;;;;19.40;13.77;;;;;;;7.92;34.20;100794.63;5072064;28;20191;-58
2022/03/22 04:21:46;;;;;;;17.23;13.33;;;;;;;7.95;33.51;100784.56;5071949;28;20201;-58
2022/03/22 04:24:15;;;;;;;21.03;12.50;;;;;;;7.95;33.45;100784.56;5071709;28;20199;-58
2022/03/22 04:26:43;;;;;;;17.25;13.45;;;;;;;7.97;34.00;100778.69;5071686;28;20927;-58
2022/03/22 04:34:42;;;;;;;19.93;13.30;;;;;;;7.89;34.26;100785.16;5071512;28;20231;-58
2022/03/22 04:37:12;;;;;;;20.30;12.73;;;;;;;7.90;34.21;100780.91;5071557;28;20285;-58
2022/03/22 04:39:42;;;;;;;20.27;14.03;;;;;;;7.87;34.23;100788.44;5071886;28;20194;-58
2022/03/22 04:42:09;;;;;;;16.20;12.00;;;;;;;7.89;34.21;100781.69;5071629;28;20206;-58
2022/03/22 04:44:37;;;;;;;21.17;13.50;;;;;;;7.95;33.67;100779.44;5071110;28;20198;-58
2022/03/22 04:47:04;;;;;;;18.57;13.13;;;;;;;7.93;33.86;100786.16;5070132;28;20194;-58
2022/03/22 04:49:33;;;;;;;19.77;13.70;;;;;;;7.90;33.94;100786.03;5071048;28;20199;-59
2022/03/22 04:57:38;;;;;;;22.60;14.63;;;;;;;7.89;34.21;100786.81;5046420;28;20284;-58
2022/03/22 05:00:06;;;;;;;24.87;14.47;;;;;;;7.86;34.20;100781.56;5070367;28;20226;-59
2022/03/22 05:02:34;;;;;;;20.97;13.83;;;;;;;7.83;34.61;100781.44;5073590;28;20193;-59
2022/03/22 05:05:01;;;;;;;18.07;13.97;;;;;;;7.86;34.16;100782.44;5072570;28;20205;-59
2022/03/22 05:07:28;;;;;;;19.33;13.97;;;;;;;7.83;34.30;100774.59;5070569;28;20248;-58
2022/03/22 05:09:56;;;;;;;21.57;15.93;;;;;;;7.79;34.42;100769.28;5070231;28;20473;-58
2022/03/22 05:12:23;;;;;;;21.30;14.43;;;;;;;7.88;34.72;100774.84;5070728;28;20194;-58
2022/03/22 05:14:51;;;;;;;18.93;14.27;;;;;;;7.89;33.90;100768.91;5070564;28;20225;-58
2022/03/22 05:17:21;;;;;;;21.27;13.70;;;;;;;7.84;34.47;100770.38;5070998;28;20245;-58
2022/03/22 05:19:49;;;;;;;20.80;13.73;;;;;;;7.88;34.23;100768.06;5070884;28;20194;-58
2022/03/22 05:22:16;;;;;;;19.73;13.10;;;;;;;7.91;34.25;100764.75;5070417;28;20198;-58
2022/03/22 05:24:43;;;;;;;27.10;15.03;;;;;;;7.92;34.11;100761.38;5070596;28;20589;-58
2022/03/22 05:27:12;;;;;;;22.70;14.97;;;;;;;7.93;34.17;100755.47;5070161;28;20220;-58
2022/03/22 05:29:39;;;;;;;20.27;15.03;;;;;;;7.95;34.21;100751.28;5070094;28;20199;-58
2022/03/22 05:32:06;;;;;;;19.13;14.20;;;;;;;8.00;34.07;100749.81;5070231;28;20285;-57
2022/03/22 05:34:33;;;;;;;18.23;13.23;;;;;;;7.99;33.86;100751.53;5070488;28;20200;-58
2022/03/22 05:37:00;;;;;;;22.00;14.33;;;;;;;8.06;34.03;100752.66;5071458;28;20309;-58
2022/03/22 05:39:27;;;;;;;19.00;12.93;;;;;;;8.05;33.79;100743.22;5070379;28;20201;-57
2022/03/22 05:41:54;;;;;;;18.53;13.90;;;;;;;8.05;33.75;100745.78;5070096;28;20209;-58
2022/03/22 05:44:22;;;;;;;18.77;14.03;;;;;;;8.04;33.85;100749.16;5070377;28;20548;-57
2022/03/22 05:46:49;;;;;;;18.47;13.33;;;;;;;8.07;33.62;100749.31;5070076;28;20187;-57
2022/03/22 05:49:16;;;;;;;29.23;14.33;;;;;;;8.17;33.97;100757.47;5070055;28;20200;-58
2022/03/22 05:51:43;;;;;;;20.98;15.32;;;;;;;8.18;33.22;100753.25;5069484;28;20512;-58
2022/03/22 05:54:10;;;;;;;23.17;13.97;;;;;;;8.25;33.53;100735.66;5070132;28;20198;-58
2022/03/22 05:56:37;;;;;;;19.67;13.53;;;;;;;8.28;33.52;100742.63;5070208;28;20306;-58
2022/03/22 05:59:04;;;;;;;27.63;14.43;;;;;;;8.30;33.75;100749.56;5069686;28;20230;-58
2022/03/22 06:01:32;;;;;;;22.00;13.87;;;;;;;8.33;33.15;100748.81;5070080;28;20208;-58
2022/03/22 06:03:59;;;;;;;17.03;12.70;;;;;;;8.36;33.20;100737.84;5070095;28;20187;-58
2022/03/22 06:06:26;;;;;;;17.27;13.17;;;;;;;8.44;33.03;100752.75;5069757;28;20207;-57
2022/03/22 06:08:53;;;;;;;18.40;12.77;;;;;;;8.51;33.00;100754.78;5069908;28;20646;-57
2022/03/22 06:11:19;;;;;;;21.97;14.13;;;;;;;8.53;33.51;100747.16;5069873;28;20197;-57
2022/03/22 06:13:46;;;;;;;18.73;12.77;;;;;;;8.58;32.85;100758.47;5069656;28;20203;-57
2022/03/22 06:16:13;;;;;;;20.60;14.00;;;;;;;8.59;32.99;100763.69;5069766;28;20226;-57
2022/03/22 06:18:42;;;;;;;24.47;14.40;;;;;;;8.69;33.32;100753.03;5069724;28;20203;-57
2022/03/22 06:21:08;;;;;;;24.53;13.53;;;;;;;8.73;32.68;100757.50;5069598;28;20191;-58
2022/03/22 06:23:36;;;;;;;17.57;12.70;;;;;;;8.76;32.84;100749.91;5069809;28;20198;-58
2022/03/22 06:26:03;;;;;;;21.10;14.40;;;;;;;8.87;32.74;100747.84;5069507;28;20626;-58
2022/03/22 06:28:30;;;;;;;16.23;12.80;;;;;;;8.84;32.77;100743.41;5069690;28;20278;-58
2022/03/22 06:30:57;;;;;;;24.47;14.63;;;;;;;8.73;32.66;100706.25;5068276;28;20278;-58
2022/03/22 06:33:24;;;;;;;17.77;13.50;;;;;;;8.99;32.78;100739.75;5068009;28;20198;-58
2022/03/22 06:35:52;;;;;;;19.53;12.57;;;;;;;9.02;32.62;100742.47;5069181;28;20219;-58
2022/03/22 06:38:20;;;;;;;19.60;14.20;;;;;;;9.08;32.64;100746.16;5069347;28;20199;-58
2022/03/22 06:40:49;;;;;;;24.33;13.47;;;;;;;9.17;32.52;100727.75;5069476;28;20192;-58
2022/03/22 06:43:17;;;;;;;18.93;13.47;;;;;;;9.28;32.08;100731.63;5069196;28;20195;-57
2022/03/22 06:45:45;;;;;;;17.13;12.73;;;;;;;9.29;32.32;100729.09;5069029;28;20727;-58
2022/03/22 06:48:12;;;;;;;22.30;13.57;;;;;;;9.38;32.09;100733.72;5066901;28;20525;-58
2022/03/22 06:50:40;;;;;;;23.77;13.57;;;;;;;9.56;32.11;100731.03;5066867;28;20631;-57
2022/03/22 06:53:08;;;;;;;17.03;12.60;;;;;;;9.67;32.02;100717.81;5066951;28;20209;-57
2022/03/22 06:55:36;;;;;;;26.27;14.17;;;;;;;9.71;32.39;100729.06;5066831;28;20621;-57
2022/03/22 06:58:04;;;;;;;24.93;12.87;;;;;;;9.72;31.87;100733.41;5066964;28;20188;-57
2022/03/22 07:00:32;;;;;;;16.57;12.77;;;;;;;9.75;31.99;100724.09;5066642;28;20225;-57
2022/03/22 07:03:00;;;;;;;17.90;12.23;;;;;;;9.84;32.21;100719.34;5066654;28;20195;-58
2022/03/22 07:05:28;;;;;;;20.77;13.13;;;;;;;9.95;31.72;100718.06;5068933;28;20654;-57
2022/03/22 07:07:56;;;;;;;19.43;12.97;;;;;;;9.88;31.84;100695.56;5069128;28;20192;-58
2022/03/22 07:10:25;;;;;;;17.70;13.40;;;;;;;10.17;31.49;100716.31;5071018;28;20264;-58
2022/03/22 07:12:54;;;;;;;19.37;13.10;;;;;;;10.09;31.36;100685.19;5072316;28;20217;-58
2022/03/22 07:15:23;;;;;;;19.70;12.20;;;;;;;10.36;31.21;100711.03;5072222;28;20242;-57
2022/03/22 07:17:52;;;;;;;17.03;12.80;;;;;;;10.40;30.91;100716.38;5072348;28;20200;-57
2022/03/22 07:20:19;;;;;;;20.80;11.97;;;;;;;10.51;31.05;100711.63;5072672;28;20600;-58
2022/03/22 07:22:47;;;;;;;18.03;12.10;;;;;;;10.62;30.84;100718.00;5072661;28;20230;-58
2022/03/22 07:25:14;;;;;;;18.23;12.40;;;;;;;10.66;30.62;100713.03;5072712;28;20195;-58
2022/03/22 07:27:42;;;;;;;15.67;12.53;;;;;;;10.78;30.73;100716.84;5072545;28;20211;-58
2022/03/22 07:30:11;;;;;;;13.93;11.20;;;;;;;10.89;30.80;100711.25;5072201;28;20206;-58
2022/03/22 07:32:38;;;;;;;24.17;11.80;;;;;;;11.02;30.37;100720.25;5072382;28;20199;-57
2022/03/22 07:35:07;;;;;;;17.33;12.00;;;;;;;11.00;29.93;100709.94;5071773;28;20196;-57
2022/03/22 07:37:34;;;;;;;14.67;11.63;;;;;;;11.05;29.82;100705.81;5072326;28;20196;-58
2022/03/22 07:40:01;;;;;;;21.70;12.57;;;;;;;11.13;30.40;100706.94;5072285;28;20195;-58
2022/03/22 07:42:29;;;;;;;14.30;11.60;;;;;;;11.29;30.11;100704.88;5071954;28;20279;-58
2022/03/22 07:45:00;;;;;;;17.70;12.50;;;;;;;11.40;29.80;100706.94;5072297;28;20630;-58
2022/03/22 07:47:28;;;;;;;21.00;11.70;;;;;;;11.51;29.82;100702.16;5071801;28;20689;-58
2022/03/22 07:55:24;;;;;;;16.53;11.37;;;;;;;11.83;29.39;100688.63;5071440;28;20309;-58
2022/03/22 07:57:51;;;;;;;16.03;11.83;;;;;;;11.91;29.74;100691.41;5071805;28;20274;-58
2022/03/22 08:00:20;;;;;;;19.87;12.10;;;;;;;12.04;29.20;100680.63;5071611;28;20239;-58
2022/03/22 08:02:52;;;;;;;16.80;12.47;;;;;;;11.94;29.29;100661.50;5071634;28;20287;-58
2022/03/22 08:05:19;;;;;;;16.77;11.53;;;;;;;12.09;29.80;100686.78;5071069;28;20194;-57
2022/03/22 08:07:46;;;;;;;21.17;12.73;;;;;;;12.11;29.75;100675.72;5071299;28;20202;-58
2022/03/22 08:10:13;;;;;;;17.30;12.47;;;;;;;12.21;29.73;100682.00;5070996;28;20199;-57
2022/03/22 08:12:41;;;;;;;16.57;11.33;;;;;;;12.34;29.46;100687.56;5070924;28;20192;-57
2022/03/22 08:15:09;;;;;;;16.97;11.00;;;;;;;12.39;30.25;100683.41;5071349;28;20229;-58
2022/03/22 08:17:39;;;;;;;16.70;11.70;;;;;;;12.47;29.91;100681.03;5071085;28;20223;-58
2022/03/22 08:20:08;;;;;;;19.03;11.67;;;;;;;12.61;29.47;100671.13;5070780;28;20612;-57
2022/03/22 08:22:48;;;;;;;20.70;11.70;;;;;;;12.71;29.47;100661.06;5063277;28;20200;-57
2022/03/22 08:25:16;;;;;;;15.57;11.40;;;;;;;12.80;29.47;100660.44;5059243;28;20273;-57
2022/03/22 08:27:43;;;;;;;19.57;11.63;;;;;;;12.83;29.53;100652.75;5051374;28;20250;-58
2022/03/22 08:30:12;;;;;;;13.60;11.00;;;;;;;12.91;29.54;100636.66;5051126;28;20196;-58
2022/03/22 08:32:41;;;;;;;19.57;11.53;;;;;;;13.06;29.51;100633.59;5051257;28;20230;-58
2022/03/22 08:35:08;;;;;;;19.58;12.45;;;;;;;13.18;29.65;100639.09;5052398;28;20902;-58
2022/03/22 08:37:36;;;;;;;13.63;10.13;;;;;;;13.23;29.86;100626.28;5056726;28;20227;-58
2022/03/22 08:40:04;;;;;;;18.20;11.30;;;;;;;13.32;29.71;100629.94;5068373;28;20633;-58
2022/03/22 08:42:31;;;;;;;17.77;11.27;;;;;;;13.45;29.69;100626.81;5071139;28;20622;-57
2022/03/22 08:44:59;;;;;;;17.23;11.07;;;;;;;13.52;29.41;100623.53;5065999;28;20218;-58
2022/03/22 08:47:29;;;;;;;18.77;11.27;;;;;;;13.57;29.58;100618.44;5071034;28;20211;-57
2022/03/22 08:49:57;;;;;;;12.00;10.10;;;;;;;13.54;29.66;100614.09;5071012;28;20647;-58
2022/03/22 08:52:24;;;;;;;15.60;11.30;;;;;;;13.57;28.94;100611.56;5070399;28;20192;-58
2022/03/22 08:54:52;;;;;;;17.93;11.20;;;;;;;13.66;28.79;100618.66;5070857;28;20196;-58
2022/03/22 08:57:19;;;;;;;13.93;10.53;;;;;;;13.62;28.83;100595.31;5070661;28;20219;-58
2022/03/22 08:59:47;;;;;;;195.03;75.33;;;;;;;13.78;29.38;100621.53;5070160;28;20231;-58
2022/03/22 09:02:14;;;;;;;22.13;14.13;;;;;;;13.78;30.07;100618.06;5069288;28;20199;-58
2022/03/22 09:07:26;;;;;;;12.27;10.27;;;;;;;13.82;30.04;100597.47;5068909;28;20440;-58
2022/03/22 09:09:53;;;;;;;16.53;11.50;;;;;;;13.77;30.23;100591.34;5069421;28;20199;-58
2022/03/22 09:12:20;;;;;;;14.17;10.63;;;;;;;13.90;30.44;100579.56;5067864;28;20180;-58
2022/03/22 09:14:47;;;;;;;11.57;9.90;;;;;;;14.05;29.54;100580.75;5067792;28;20205;-58
2022/03/22 09:17:14;;;;;;;16.17;10.65;;;;;;;14.22;29.85;100578.47;5067738;28;20453;-58
2022/03/22 09:19:41;;;;;;;13.03;10.57;;;;;;;14.47;29.22;100577.25;5068640;28;20200;-58
2022/03/22 09:22:10;;;;;;;14.67;11.30;;;;;;;14.37;29.22;100550.34;5068331;28;20203;-57
2022/03/22 09:24:38;;;;;;;12.27;10.43;;;;;;;14.58;29.00;100571.44;5068190;28;20654;-58
2022/03/22 09:27:05;;;;;;;15.90;10.10;;;;;;;14.41;29.38;100574.53;5068667;28;20195;-57
2022/03/22 09:29:32;;;;;;;12.23;10.17;;;;;;;14.43;29.51;100575.44;5070071;28;20282;-58
2022/03/22 09:31:59;;;;;;;13.23;10.43;;;;;;;14.32;29.76;100567.50;5069779;28;20193;-57
2022/03/22 09:34:26;;;;;;;11.87;9.43;;;;;;;14.36;29.50;100574.47;5070078;28;20196;-57
2022/03/22 09:36:53;;;;;;;11.90;9.80;;;;;;;14.42;29.27;100573.72;5069795;28;20308;-57
2022/03/22 09:39:20;;;;;;;12.80;9.27;;;;;;;14.37;29.75;100564.97;5070147;28;20219;-58
2022/03/22 09:41:50;;;;;;;13.17;10.07;;;;;;;14.34;29.92;100559.78;5069884;28;20192;-57
2022/03/22 09:44:19;;;;;;;12.87;9.37;;;;;;;14.19;29.89;100534.47;5069611;28;20197;-58
2022/03/22 09:46:48;;;;;;;13.30;9.87;;;;;;;14.39;30.14;100547.78;5069564;28;20195;-57
2022/03/22 09:49:16;;;;;;;13.73;10.32;;;;;;;14.39;29.85;100551.25;5069619;28;20441;-58
2022/03/22 09:51:46;;;;;;;13.17;10.33;;;;;;;14.56;30.13;100541.19;5069818;28;20198;-58
2022/03/22 09:54:13;;;;;;;14.03;9.27;;;;;;;14.59;30.02;100547.28;5070176;28;20278;-58
2022/03/22 09:56:40;;;;;;;13.50;9.50;;;;;;;14.55;30.17;100542.03;5069761;28;20647;-59
2022/03/22 09:59:09;;;;;;;12.50;9.45;;;;;;;14.41;30.00;100541.81;5069519;28;20451;-58
2022/03/22 10:01:36;;;;;;;11.57;8.83;;;;;;;14.43;30.57;100534.06;5069359;28;20228;-58
2022/03/22 10:04:05;;;;;;;10.23;7.97;;;;;;;14.13;30.86;100498.16;5069139;28;20192;-57
2022/03/22 10:06:33;;;;;;;11.80;8.80;;;;;;;14.51;31.20;100520.41;5069536;28;20191;-58
2022/03/22 10:09:01;;;;;;;10.57;8.20;;;;;;;14.84;30.86;100524.38;5069904;28;20222;-58
2022/03/22 10:11:36;;;;;;;9.13;7.40;;;;;;;15.04;30.77;100525.56;5069632;28;20196;-58
2022/03/22 10:14:04;;;;;;;8.60;7.27;;;;;;;14.91;30.37;100513.31;5069128;28;20665;-58
2022/03/22 10:16:32;;;;;;;11.90;6.97;;;;;;;15.03;30.38;100523.81;5068812;28;20215;-58
2022/03/22 10:18:59;;;;;;;8.30;6.17;;;;;;;14.96;30.13;100522.88;5069296;28;20197;-58
2022/03/22 10:21:26;;;;;;;8.00;5.93;;;;;;;14.93;30.45;100512.47;5069248;28;20704;-58
2022/03/22 10:23:55;;;;;;;8.63;6.00;;;;;;;14.90;30.54;100502.06;5069465;28;20244;-58
2022/03/22 10:26:31;;;;;;;7.80;6.63;;;;;;;15.18;30.49;100503.34;5069139;28;20194;-58
2022/03/22 10:28:58;;;;;;;7.90;6.27;;;;;;;15.39;30.56;100498.44;5069533;28;20732;-58
2022/03/22 10:31:34;;;;;;;7.47;6.27;;;;;;;15.53;30.65;100496.06;5069410;28;20196;-58
2022/03/22 10:34:01;;;;;;;7.93;6.27;;;;;;;15.51;30.87;100497.75;5068913;28;20199;-58
2022/03/22 10:36:28;;;;;;;8.27;5.93;;;;;;;15.64;30.15;100491.88;5068815;28;20217;-58
2022/03/22 10:38:57;;;;;;;7.03;5.70;;;;;;;15.54;29.88;100487.44;5069029;28;20275;-57
2022/03/22 10:41:25;;;;;;;6.60;5.85;;;;;;;15.49;29.66;100478.75;5068858;28;20503;-58
2022/03/22 10:44:02;;;;;;;9.43;5.23;;;;;;;15.59;29.95;100480.59;5068902;28;20249;-58
2022/03/22 10:46:30;;;;;;;10.23;6.23;;;;;;;15.79;30.07;100481.69;5072861;28;20194;-58
2022/03/22 10:49:04;;;;;;;7.43;5.80;;;;;;;15.60;29.73;100482.34;5072867;28;20199;-58
2022/03/22 10:51:40;;;;;;;7.17;5.50;;;;;;;15.16;30.13;100484.34;5072966;28;20201;-59
2022/03/22 10:54:08;;;;;;;5.63;4.80;;;;;;;15.32;29.36;100469.03;5072453;28;20195;-58
2022/03/22 10:56:35;;;;;;;5.40;4.90;;;;;;;15.41;29.73;100475.16;5072803;28;20249;-59
2022/03/22 10:59:03;;;;;;;6.60;5.60;;;;;;;15.32;30.08;100470.75;5072465;28;20237;-58
2022/03/22 11:01:31;;;;;;;6.60;5.33;;;;;;;15.44;29.16;100473.47;5073119;28;20195;-58
2022/03/22 11:03:58;;;;;;;14.30;6.70;;;;;;;15.21;28.67;100461.97;5072832;28;20200;-58
2022/03/22 11:06:34;;;;;;;14.47;6.53;;;;;;;15.12;28.58;100467.00;5073022;28;20192;-59
2022/03/22 11:09:01;;;;;;;10.77;6.00;;;;;;;15.00;29.74;100466.81;5072411;28;20207;-58
2022/03/22 11:11:31;;;;;;;10.13;5.80;;;;;;;15.02;29.82;100439.28;5072214;28;20196;-58
2022/03/22 11:13:59;;;;;;;9.30;5.50;;;;;;;15.25;29.18;100453.38;5072675;28;20602;-58
2022/03/22 11:16:27;;;;;;;7.13;4.30;;;;;;;15.22;27.76;100453.31;5072117;28;20243;-57
2022/03/22 11:18:59;;;;;;;7.80;4.90;;;;;;;15.17;27.86;100455.00;5071839;28;20192;-59
2022/03/22 11:21:27;;;;;;;11.43;5.17;;;;;;;15.04;27.57;100461.72;5071819;28;20205;-59
2022/03/22 11:24:07;;;;;;;15.15;5.90;;;;;;;14.67;28.19;100457.75;5072504;28;20461;-58
2022/03/22 11:26:40;;;;;;;6.90;4.70;;;;;;;14.60;28.24;100467.97;5072307;28;20281;-57
2022/03/22 11:29:08;;;;;;;7.60;5.60;;;;;;;14.66;28.56;100455.16;5072336;28;20200;-58
2022/03/22 11:31:35;;;;;;;9.60;5.70;;;;;;;14.85;28.55;100441.63;5071998;28;20299;-59
2022/03/22 11:34:11;;;;;;;8.23;5.70;;;;;;;14.96;28.99;100446.94;5071776;28;20284;-58
2022/03/22 11:36:42;;;;;;;16.83;6.20;;;;;;;14.83;27.93;100445.03;5072080;28;20221;-57
2022/03/22 11:39:15;;;;;;;10.53;6.57;;;;;;;14.74;27.76;100425.97;5071870;28;20690;-58
2022/03/22 11:44:35;;;;;;;10.80;7.43;;;;;;;15.01;27.59;100422.00;5071759;28;20246;-58
2022/03/22 11:47:05;;;;;;;12.57;7.07;;;;;;;14.75;27.32;100432.84;5072094;28;20193;-58
2022/03/22 11:49:47;;;;;;;10.73;7.23;;;;;;;14.54;28.19;100429.09;5071719;28;20200;-58